Map

Track Data

SID SEASON NUMBER BASIN SUBBASIN NAME ISO_TIME NATURE LAT LON WMO_WIND WMO_PRES WMO_AGENCY TRACK_TYPE DIST2LAND LANDFALL IFLAG USA_AGENCY USA_ATCF_ID USA_LAT USA_LON USA_RECORD USA_STATUS USA_WIND USA_PRES USA_SSHS USA_R34_NE USA_R34_SE USA_R34_SW USA_R34_NW USA_R50_NE USA_R50_SE USA_R50_SW USA_R50_NW USA_R64_NE USA_R64_SE USA_R64_SW USA_R64_NW USA_POCI USA_ROCI USA_RMW USA_EYE TOKYO_LAT TOKYO_LON TOKYO_GRADE TOKYO_WIND TOKYO_PRES TOKYO_R50_DIR TOKYO_R50_LONG TOKYO_R50_SHORT TOKYO_R30_DIR TOKYO_R30_LONG TOKYO_R30_SHORT TOKYO_LAND CMA_LAT CMA_LON CMA_CAT CMA_WIND CMA_PRES HKO_LAT HKO_LON HKO_CAT HKO_WIND HKO_PRES NEWDELHI_LAT NEWDELHI_LON NEWDELHI_GRADE NEWDELHI_WIND NEWDELHI_PRES NEWDELHI_CI NEWDELHI_DP NEWDELHI_POCI REUNION_LAT REUNION_LON REUNION_TYPE REUNION_WIND REUNION_PRES REUNION_TNUM REUNION_CI REUNION_RMW REUNION_R34_NE REUNION_R34_SE REUNION_R34_SW REUNION_R34_NW REUNION_R50_NE REUNION_R50_SE REUNION_R50_SW REUNION_R50_NW REUNION_R64_NE REUNION_R64_SE REUNION_R64_SW REUNION_R64_NW BOM_LAT BOM_LON BOM_TYPE BOM_WIND BOM_PRES BOM_TNUM BOM_CI BOM_RMW BOM_R34_NE BOM_R34_SE BOM_R34_SW BOM_R34_NW BOM_R50_NE BOM_R50_SE BOM_R50_SW BOM_R50_NW BOM_R64_NE BOM_R64_SE BOM_R64_SW BOM_R64_NW BOM_ROCI BOM_POCI BOM_EYE BOM_POS_METHOD BOM_PRES_METHOD NADI_LAT NADI_LON NADI_CAT NADI_WIND NADI_PRES WELLINGTON_LAT WELLINGTON_LON WELLINGTON_WIND WELLINGTON_PRES DS824_LAT DS824_LON DS824_STAGE DS824_WIND DS824_PRES TD9636_LAT TD9636_LON TD9636_STAGE TD9636_WIND TD9636_PRES TD9635_LAT TD9635_LON TD9635_WIND TD9635_PRES TD9635_ROCI NEUMANN_LAT NEUMANN_LON NEUMANN_CLASS NEUMANN_WIND NEUMANN_PRES MLC_LAT MLC_LON MLC_CLASS MLC_WIND MLC_PRES USA_GUST BOM_GUST BOM_GUST_PER REUNION_GUST REUNION_GUST_PER USA_SEAHGT USA_SEARAD_NE USA_SEARAD_SE USA_SEARAD_SW USA_SEARAD_NW STORM_SPEED STORM_DIR
1919193N20149 1919 16 WP MM NOT_NAMED 1919-07-11 21:00:00 NR 19.6000 148.500 main 1905 1878 __________O___ -1 19.6000 148.500 7 9 291
1919193N20149 1919 16 WP MM NOT_NAMED 1919-07-12 00:00:00 NR 19.7584 148.056 main 1868 1837 __________P___ -1 19.7585 148.056 7 9 292
1919193N20149 1919 16 WP MM NOT_NAMED 1919-07-12 03:00:00 NR 19.9331 147.610 main 1837 1800 __________P___ -1 19.9331 147.610 7 9 294
1919193N20149 1919 16 WP MM NOT_NAMED 1919-07-12 06:00:00 NR 20.1412 147.158 main 1800 1750 __________P___ -1 20.1412 147.158 7 10 299
1919193N20149 1919 16 WP MM NOT_NAMED 1919-07-12 09:00:00 NR 20.4000 146.700 main 1750 1704 __________O___ -1 20.4000 146.700 7 10 304
1919193N20149 1919 16 WP MM NOT_NAMED 1919-07-12 12:00:00 NR 20.7191 146.236 main 1700 1644 __________P___ -1 20.7191 146.236 7 11 308
1919193N20149 1919 16 WP MM NOT_NAMED 1919-07-12 15:00:00 NR 21.0777 145.784 main 1644 1599 __________P___ -1 21.0777 145.784 7 11 312
1919193N20149 1919 16 WP MM NOT_NAMED 1919-07-12 18:00:00 NR 21.4474 145.364 main 1599 1544 __________P___ -1 21.4474 145.364 7 10 315
1919193N20149 1919 16 WP MM NOT_NAMED 1919-07-12 21:00:00 NR 21.8000 145.000 main 1544 1503 __________O___ -1 21.8000 145.000 7 9 318
1919193N20149 1919 16 WP MM NOT_NAMED 1919-07-13 00:00:00 NR 22.1367 144.689 main 1503 1462 __________P___ -1 22.1367 144.689 7 8 321
1919193N20149 1919 16 WP MM NOT_NAMED 1919-07-13 03:00:00 NR 22.4470 144.437 main 1462 1427 __________P___ -1 22.4470 144.437 7 7 324
1919193N20149 1919 16 WP MM NOT_NAMED 1919-07-13 06:00:00 NR 22.7088 144.242 main 1424 1399 __________P___ -1 22.7088 144.242 7 6 326
1919193N20149 1919 16 WP MM NOT_NAMED 1919-07-13 09:00:00 NR 22.9000 144.100 main 1399 1399 __________O___ -1 22.9000 144.100 7 2 317
1919193N20149 1919 16 WP MM NOT_NAMED 1919-07-13 12:00:00 NR 22.8660 144.082 main 1399 1399 __________P___ -1 22.8660 144.082 7 1 191
1919193N20149 1919 16 WP MM NOT_NAMED 1919-07-13 15:00:00 NR 22.7836 144.100 main 1410 1410 __________P___ -1 22.7836 144.100 7 1 0
1919193N20149 1919 16 WP MM NOT_NAMED 1919-07-13 18:00:00 NR 22.7844 144.068 main 1410 1383 __________P___ -1 22.7844 144.068 7 3 319
1919193N20149 1919 16 WP MM NOT_NAMED 1919-07-13 21:00:00 NR 23.0000 143.900 main 1383 1308 __________O___ -1 23.0000 143.900 7 10 326
1919193N20149 1919 16 WP MM NOT_NAMED 1919-07-14 00:00:00 NR 23.6417 143.446 main 1305 1205 __________P___ -1 23.6417 143.446 7 18 327
1919193N20149 1919 16 WP MM NOT_NAMED 1919-07-14 03:00:00 NR 24.4957 142.850 main 1191 1077 __________P___ -1 24.4957 142.850 7 21 328
1919193N20149 1919 16 WP MM NOT_NAMED 1919-07-14 06:00:00 NR 25.4265 142.202 main 1077 964 __________P___ -1 25.4265 142.202 7 21 328
1919193N20149 1919 16 WP MM NOT_NAMED 1919-07-14 09:00:00 NR 26.3000 141.600 main 964 889 __________O___ -1 26.3000 141.600 7 18 328
1919193N20149 1919 16 WP MM NOT_NAMED 1919-07-14 12:00:00 NR 26.9444 141.130 main 885 813 __________P___ -1 26.9444 141.130 7 14 327
1919193N20149 1919 16 WP MM NOT_NAMED 1919-07-14 15:00:00 NR 27.5115 140.733 main 808 745 __________P___ -1 27.5115 140.733 7 13 330
1919193N20149 1919 16 WP MM NOT_NAMED 1919-07-14 18:00:00 NR 28.0229 140.419 main 745 688 __________P___ -1 28.0229 140.419 7 11 335
1919193N20149 1919 16 WP MM NOT_NAMED 1919-07-14 21:00:00 NR 28.5000 140.200 main 688 641 __________O___ -1 28.5000 140.200 7 10 337
1919193N20149 1919 16 WP MM NOT_NAMED 1919-07-15 00:00:00 NR 28.8965 140.002 main 641 600 __________P___ -1 28.8965 140.002 7 8 342
1919193N20149 1919 16 WP MM NOT_NAMED 1919-07-15 03:00:00 NR 29.2785 139.907 main 600 556 __________P___ -1 29.2785 139.907 7 8 356
1919193N20149 1919 16 WP MM NOT_NAMED 1919-07-15 06:00:00 NR 29.7213 139.933 main 556 494 __________P___ -1 29.7213 139.933 7 10 9
1919193N20149 1919 16 WP MM NOT_NAMED 1919-07-15 09:00:00 NR 30.3000 140.100 main 494 417 __________O___ -1 30.3000 140.100 7 15 15
1919193N20149 1919 16 WP MM NOT_NAMED 1919-07-15 12:00:00 NR 31.1424 140.380 main 417 323 __________P___ -1 31.1424 140.380 7 19 18
1919193N20149 1919 16 WP MM NOT_NAMED 1919-07-15 15:00:00 NR 32.1168 140.807 main 323 238 __________P___ -1 32.1168 140.807 7 22 23
1919193N20149 1919 16 WP MM NOT_NAMED 1919-07-15 18:00:00 NR 33.1328 141.356 main 243 191 __________P___ -1 33.1328 141.356 7 22 27
1919193N20149 1919 16 WP MM NOT_NAMED 1919-07-15 21:00:00 NR 34.1000 142.000 main 190 176 __________O___ -1 34.1000 142.000 7 21 32
1919193N20149 1919 16 WP MM NOT_NAMED 1919-07-16 00:00:00 NR 34.9495 142.711 main 185 184 __________P___ -1 34.9495 142.711 7 20 37
1919193N20149 1919 16 WP MM NOT_NAMED 1919-07-16 03:00:00 NR 35.6940 143.473 main 234 234 __________P___ -1 35.6940 143.473 7 19 42
1919193N20149 1919 16 WP MM NOT_NAMED 1919-07-16 06:00:00 NR 36.3665 144.274 main 300 300 __________P___ -1 36.3665 144.274 7 19 45
1919193N20149 1919 16 WP MM NOT_NAMED 1919-07-16 09:00:00 NR 37.0000 145.100 main 347 __________O___ -1 37.0000 145.100 7 18 46

Digital Typhoon Data and Search

About IBTrACS Database

This database is a web-friendly format of International Best Track Archive for Climate Stewardship (IBTrACS), a global best track data archive curated by NOAA dating back to 1842.

Updated: 2021-10-21